sensor_id;sensor_type;location;lat;lon;timestamp;P1;durP1;ratioP1;P2;durP2;ratioP2
2019;SDS011;1014;51.960;8.542;2024-01-06T00:01:32;50.20;;;46.35;;
2019;SDS011;1014;51.960;8.542;2024-01-06T00:03:59;48.33;;;44.77;;
2019;SDS011;1014;51.960;8.542;2024-01-06T00:06:26;48.07;;;44.33;;
2019;SDS011;1014;51.960;8.542;2024-01-06T00:08:53;43.37;;;40.47;;
2019;SDS011;1014;51.960;8.542;2024-01-06T00:11:20;44.20;;;40.90;;
2019;SDS011;1014;51.960;8.542;2024-01-06T00:13:47;38.37;;;36.00;;
2019;SDS011;1014;51.960;8.542;2024-01-06T00:16:17;42.77;;;39.77;;
2019;SDS011;1014;51.960;8.542;2024-01-06T00:18:44;41.93;;;38.83;;
2019;SDS011;1014;51.960;8.542;2024-01-06T00:21:11;38.30;;;35.80;;
2019;SDS011;1014;51.960;8.542;2024-01-06T00:23:38;42.50;;;39.50;;
2019;SDS011;1014;51.960;8.542;2024-01-06T00:26:06;41.97;;;38.97;;
2019;SDS011;1014;51.960;8.542;2024-01-06T00:28:33;37.20;;;34.63;;
2019;SDS011;1014;51.960;8.542;2024-01-06T00:31:00;38.20;;;35.40;;
2019;SDS011;1014;51.960;8.542;2024-01-06T00:33:29;38.73;;;36.03;;
2019;SDS011;1014;51.960;8.542;2024-01-06T00:35:55;38.83;;;35.53;;
2019;SDS011;1014;51.960;8.542;2024-01-06T00:38:22;40.33;;;37.40;;
2019;SDS011;1014;51.960;8.542;2024-01-06T00:40:49;40.47;;;37.13;;
2019;SDS011;1014;51.960;8.542;2024-01-06T00:43:16;40.03;;;36.97;;
2019;SDS011;1014;51.960;8.542;2024-01-06T00:45:43;37.60;;;34.90;;
2019;SDS011;1014;51.960;8.542;2024-01-06T00:48:10;39.85;;;36.78;;
2019;SDS011;1014;51.960;8.542;2024-01-06T00:50:39;43.97;;;40.30;;
2019;SDS011;1014;51.960;8.542;2024-01-06T00:53:06;36.50;;;34.10;;
2019;SDS011;1014;51.960;8.542;2024-01-06T00:55:33;37.73;;;35.27;;
2019;SDS011;1014;51.960;8.542;2024-01-06T00:58:00;38.00;;;35.03;;
2019;SDS011;1014;51.960;8.542;2024-01-06T01:00:27;37.80;;;34.95;;
2019;SDS011;1014;51.960;8.542;2024-01-06T01:02:54;35.40;;;32.77;;
2019;SDS011;1014;51.960;8.542;2024-01-06T01:05:22;35.60;;;33.03;;
2019;SDS011;1014;51.960;8.542;2024-01-06T01:07:50;37.58;;;34.92;;
2019;SDS011;1014;51.960;8.542;2024-01-06T01:10:17;37.87;;;35.07;;
2019;SDS011;1014;51.960;8.542;2024-01-06T01:12:44;37.42;;;34.85;;
2019;SDS011;1014;51.960;8.542;2024-01-06T01:15:11;37.83;;;35.00;;
2019;SDS011;1014;51.960;8.542;2024-01-06T01:17:38;35.40;;;33.00;;
2019;SDS011;1014;51.960;8.542;2024-01-06T01:20:05;38.50;;;35.70;;
2019;SDS011;1014;51.960;8.542;2024-01-06T01:22:32;37.53;;;34.80;;
2019;SDS011;1014;51.960;8.542;2024-01-06T01:25:01;37.77;;;34.87;;
2019;SDS011;1014;51.960;8.542;2024-01-06T01:27:32;37.13;;;34.47;;
2019;SDS011;1014;51.960;8.542;2024-01-06T01:29:59;37.22;;;34.63;;
2019;SDS011;1014;51.960;8.542;2024-01-06T01:32:26;37.97;;;35.17;;
2019;SDS011;1014;51.960;8.542;2024-01-06T01:34:53;40.10;;;36.90;;
2019;SDS011;1014;51.960;8.542;2024-01-06T01:37:20;40.43;;;37.40;;
2019;SDS011;1014;51.960;8.542;2024-01-06T01:39:47;39.70;;;36.90;;
2019;SDS011;1014;51.960;8.542;2024-01-06T01:42:15;35.60;;;33.13;;
2019;SDS011;1014;51.960;8.542;2024-01-06T01:44:42;36.88;;;34.08;;
2019;SDS011;1014;51.960;8.542;2024-01-06T01:47:09;36.83;;;34.30;;
2019;SDS011;1014;51.960;8.542;2024-01-06T01:49:37;39.30;;;36.47;;
2019;SDS011;1014;51.960;8.542;2024-01-06T01:52:04;38.47;;;35.67;;
2019;SDS011;1014;51.960;8.542;2024-01-06T01:54:31;38.50;;;35.50;;
2019;SDS011;1014;51.960;8.542;2024-01-06T01:56:59;38.77;;;36.03;;
2019;SDS011;1014;51.960;8.542;2024-01-06T01:59:27;38.10;;;35.50;;
2019;SDS011;1014;51.960;8.542;2024-01-06T02:01:54;38.40;;;35.60;;
2019;SDS011;1014;51.960;8.542;2024-01-06T02:04:22;38.63;;;36.03;;
2019;SDS011;1014;51.960;8.542;2024-01-06T02:06:49;38.30;;;35.67;;
2019;SDS011;1014;51.960;8.542;2024-01-06T02:09:16;40.63;;;37.57;;
2019;SDS011;1014;51.960;8.542;2024-01-06T02:11:43;38.47;;;35.47;;
2019;SDS011;1014;51.960;8.542;2024-01-06T02:14:10;40.53;;;37.22;;
2019;SDS011;1014;51.960;8.542;2024-01-06T02:16:38;39.30;;;36.30;;
2019;SDS011;1014;51.960;8.542;2024-01-06T02:19:05;40.37;;;37.07;;
2019;SDS011;1014;51.960;8.542;2024-01-06T02:21:34;41.60;;;38.42;;
2019;SDS011;1014;51.960;8.542;2024-01-06T02:24:04;40.47;;;36.97;;
2019;SDS011;1014;51.960;8.542;2024-01-06T02:26:31;39.63;;;36.60;;
2019;SDS011;1014;51.960;8.542;2024-01-06T02:28:58;39.90;;;36.70;;
2019;SDS011;1014;51.960;8.542;2024-01-06T02:31:25;38.23;;;35.27;;
2019;SDS011;1014;51.960;8.542;2024-01-06T02:33:52;38.85;;;35.30;;
2019;SDS011;1014;51.960;8.542;2024-01-06T02:36:19;37.87;;;34.77;;
2019;SDS011;1014;51.960;8.542;2024-01-06T02:38:46;40.57;;;37.50;;
2019;SDS011;1014;51.960;8.542;2024-01-06T02:41:14;41.30;;;37.90;;
2019;SDS011;1014;51.960;8.542;2024-01-06T02:43:41;39.63;;;36.57;;
2019;SDS011;1014;51.960;8.542;2024-01-06T02:46:08;40.80;;;37.70;;
2019;SDS011;1014;51.960;8.542;2024-01-06T02:48:35;39.00;;;36.00;;
2019;SDS011;1014;51.960;8.542;2024-01-06T02:51:02;38.93;;;35.70;;
2019;SDS011;1014;51.960;8.542;2024-01-06T02:53:29;39.30;;;36.30;;
2019;SDS011;1014;51.960;8.542;2024-01-06T02:55:56;39.07;;;36.20;;
2019;SDS011;1014;51.960;8.542;2024-01-06T02:58:24;38.47;;;35.47;;
2019;SDS011;1014;51.960;8.542;2024-01-06T03:00:51;38.60;;;35.65;;
2019;SDS011;1014;51.960;8.542;2024-01-06T03:03:18;38.10;;;35.10;;
2019;SDS011;1014;51.960;8.542;2024-01-06T03:05:45;38.95;;;35.80;;
2019;SDS011;1014;51.960;8.542;2024-01-06T03:08:14;40.43;;;37.30;;
2019;SDS011;1014;51.960;8.542;2024-01-06T03:10:41;43.17;;;39.67;;
2019;SDS011;1014;51.960;8.542;2024-01-06T03:13:08;41.37;;;37.97;;
2019;SDS011;1014;51.960;8.542;2024-01-06T03:15:36;43.00;;;39.30;;
2019;SDS011;1014;51.960;8.542;2024-01-06T03:18:03;44.77;;;40.57;;
2019;SDS011;1014;51.960;8.542;2024-01-06T03:20:30;42.50;;;39.10;;
2019;SDS011;1014;51.960;8.542;2024-01-06T03:22:57;40.93;;;37.33;;
2019;SDS011;1014;51.960;8.542;2024-01-06T03:25:24;42.63;;;39.23;;
2019;SDS011;1014;51.960;8.542;2024-01-06T03:27:51;41.53;;;37.93;;
2019;SDS011;1014;51.960;8.542;2024-01-06T03:30:18;43.30;;;39.70;;
2019;SDS011;1014;51.960;8.542;2024-01-06T03:32:46;41.97;;;38.40;;
2019;SDS011;1014;51.960;8.542;2024-01-06T03:35:13;41.50;;;38.23;;
2019;SDS011;1014;51.960;8.542;2024-01-06T03:37:41;42.87;;;38.87;;
2019;SDS011;1014;51.960;8.542;2024-01-06T03:40:08;42.80;;;39.10;;
2019;SDS011;1014;51.960;8.542;2024-01-06T03:42:35;43.85;;;40.13;;
2019;SDS011;1014;51.960;8.542;2024-01-06T03:45:02;44.63;;;40.43;;
2019;SDS011;1014;51.960;8.542;2024-01-06T03:47:29;44.50;;;40.90;;
2019;SDS011;1014;51.960;8.542;2024-01-06T03:49:58;46.67;;;42.27;;
2019;SDS011;1014;51.960;8.542;2024-01-06T03:52:25;44.77;;;41.00;;
2019;SDS011;1014;51.960;8.542;2024-01-06T03:54:52;45.53;;;41.78;;
2019;SDS011;1014;51.960;8.542;2024-01-06T03:57:19;43.73;;;40.00;;
2019;SDS011;1014;51.960;8.542;2024-01-06T03:59:46;39.63;;;36.13;;
2019;SDS011;1014;51.960;8.542;2024-01-06T04:02:12;46.13;;;42.10;;
2019;SDS011;1014;51.960;8.542;2024-01-06T04:04:39;45.60;;;41.07;;
2019;SDS011;1014;51.960;8.542;2024-01-06T04:07:08;44.10;;;40.50;;
2019;SDS011;1014;51.960;8.542;2024-01-06T04:09:35;44.17;;;40.10;;
2019;SDS011;1014;51.960;8.542;2024-01-06T04:12:02;45.97;;;41.63;;
2019;SDS011;1014;51.960;8.542;2024-01-06T04:14:29;44.97;;;40.67;;
2019;SDS011;1014;51.960;8.542;2024-01-06T04:16:56;42.93;;;39.10;;
2019;SDS011;1014;51.960;8.542;2024-01-06T04:19:23;43.13;;;39.30;;
2019;SDS011;1014;51.960;8.542;2024-01-06T04:21:50;45.03;;;40.83;;
2019;SDS011;1014;51.960;8.542;2024-01-06T04:24:18;42.47;;;38.57;;
2019;SDS011;1014;51.960;8.542;2024-01-06T04:26:45;45.57;;;41.57;;
2019;SDS011;1014;51.960;8.542;2024-01-06T04:29:12;46.47;;;41.93;;
2019;SDS011;1014;51.960;8.542;2024-01-06T04:31:39;46.47;;;42.30;;
2019;SDS011;1014;51.960;8.542;2024-01-06T04:34:06;48.13;;;43.93;;
2019;SDS011;1014;51.960;8.542;2024-01-06T04:36:33;46.10;;;42.05;;
2019;SDS011;1014;51.960;8.542;2024-01-06T04:39:00;45.30;;;41.30;;
2019;SDS011;1014;51.960;8.542;2024-01-06T04:41:28;44.27;;;40.37;;
2019;SDS011;1014;51.960;8.542;2024-01-06T04:43:56;43.03;;;39.23;;
2019;SDS011;1014;51.960;8.542;2024-01-06T04:46:23;39.80;;;36.70;;
2019;SDS011;1014;51.960;8.542;2024-01-06T04:48:50;43.53;;;39.67;;
2019;SDS011;1014;51.960;8.542;2024-01-06T04:51:17;42.10;;;38.50;;
2019;SDS011;1014;51.960;8.542;2024-01-06T04:53:44;41.30;;;37.70;;
2019;SDS011;1014;51.960;8.542;2024-01-06T04:56:11;41.07;;;37.67;;
2019;SDS011;1014;51.960;8.542;2024-01-06T04:58:39;39.03;;;35.87;;
2019;SDS011;1014;51.960;8.542;2024-01-06T05:01:06;39.67;;;36.30;;
2019;SDS011;1014;51.960;8.542;2024-01-06T05:03:33;39.93;;;36.57;;
2019;SDS011;1014;51.960;8.542;2024-01-06T05:05:59;39.33;;;35.90;;
2019;SDS011;1014;51.960;8.542;2024-01-06T05:08:26;38.88;;;35.60;;
2019;SDS011;1014;51.960;8.542;2024-01-06T05:10:55;38.27;;;34.77;;
2019;SDS011;1014;51.960;8.542;2024-01-06T05:13:22;35.30;;;32.40;;
2019;SDS011;1014;51.960;8.542;2024-01-06T05:15:51;36.57;;;33.37;;
2019;SDS011;1014;51.960;8.542;2024-01-06T05:18:18;35.00;;;32.13;;
2019;SDS011;1014;51.960;8.542;2024-01-06T05:20:45;33.58;;;30.75;;
2019;SDS011;1014;51.960;8.542;2024-01-06T05:23:12;34.87;;;32.17;;
2019;SDS011;1014;51.960;8.542;2024-01-06T05:25:39;33.70;;;30.90;;
2019;SDS011;1014;51.960;8.542;2024-01-06T05:28:06;32.93;;;30.07;;
2019;SDS011;1014;51.960;8.542;2024-01-06T05:30:32;32.53;;;29.73;;
2019;SDS011;1014;51.960;8.542;2024-01-06T05:33:01;35.93;;;32.80;;
2019;SDS011;1014;51.960;8.542;2024-01-06T05:35:28;34.30;;;31.10;;
2019;SDS011;1014;51.960;8.542;2024-01-06T05:37:55;33.87;;;30.97;;
2019;SDS011;1014;51.960;8.542;2024-01-06T05:40:22;33.87;;;30.67;;
2019;SDS011;1014;51.960;8.542;2024-01-06T05:42:49;33.23;;;30.33;;
2019;SDS011;1014;51.960;8.542;2024-01-06T05:45:20;35.10;;;32.10;;
2019;SDS011;1014;51.960;8.542;2024-01-06T05:47:47;35.67;;;32.53;;
2019;SDS011;1014;51.960;8.542;2024-01-06T05:50:16;34.83;;;32.07;;
2019;SDS011;1014;51.960;8.542;2024-01-06T05:52:43;33.77;;;30.93;;
2019;SDS011;1014;51.960;8.542;2024-01-06T05:55:12;30.93;;;28.63;;
2019;SDS011;1014;51.960;8.542;2024-01-06T05:57:39;29.03;;;26.83;;
2019;SDS011;1014;51.960;8.542;2024-01-06T06:00:07;30.40;;;28.30;;
2019;SDS011;1014;51.960;8.542;2024-01-06T06:02:35;31.00;;;28.70;;
2019;SDS011;1014;51.960;8.542;2024-01-06T06:05:04;31.60;;;29.30;;
2019;SDS011;1014;51.960;8.542;2024-01-06T06:07:32;31.03;;;28.53;;
2019;SDS011;1014;51.960;8.542;2024-01-06T06:10:04;31.10;;;29.00;;
2019;SDS011;1014;51.960;8.542;2024-01-06T06:12:31;30.80;;;28.60;;
2019;SDS011;1014;51.960;8.542;2024-01-06T06:14:58;30.33;;;28.23;;
2019;SDS011;1014;51.960;8.542;2024-01-06T06:17:25;29.07;;;27.17;;
2019;SDS011;1014;51.960;8.542;2024-01-06T06:19:52;30.90;;;28.40;;
2019;SDS011;1014;51.960;8.542;2024-01-06T06:22:19;30.40;;;28.20;;
2019;SDS011;1014;51.960;8.542;2024-01-06T06:24:48;32.60;;;30.37;;
2019;SDS011;1014;51.960;8.542;2024-01-06T06:27:15;31.53;;;29.13;;
2019;SDS011;1014;51.960;8.542;2024-01-06T06:29:42;30.30;;;28.10;;
2019;SDS011;1014;51.960;8.542;2024-01-06T06:32:09;29.50;;;27.47;;
2019;SDS011;1014;51.960;8.542;2024-01-06T06:34:36;31.83;;;29.33;;
2019;SDS011;1014;51.960;8.542;2024-01-06T06:37:03;30.80;;;28.57;;
2019;SDS011;1014;51.960;8.542;2024-01-06T06:39:30;31.73;;;29.47;;
2019;SDS011;1014;51.960;8.542;2024-01-06T06:41:58;30.50;;;28.27;;
2019;SDS011;1014;51.960;8.542;2024-01-06T06:44:26;29.90;;;27.83;;
2019;SDS011;1014;51.960;8.542;2024-01-06T06:46:53;30.67;;;28.37;;
2019;SDS011;1014;51.960;8.542;2024-01-06T06:49:20;29.93;;;27.53;;
2019;SDS011;1014;51.960;8.542;2024-01-06T06:51:47;30.90;;;28.70;;
2019;SDS011;1014;51.960;8.542;2024-01-06T06:54:15;28.37;;;26.37;;
2019;SDS011;1014;51.960;8.542;2024-01-06T06:56:42;28.50;;;26.70;;
2019;SDS011;1014;51.960;8.542;2024-01-06T06:59:10;29.30;;;27.23;;
2019;SDS011;1014;51.960;8.542;2024-01-06T07:01:37;27.63;;;25.63;;
2019;SDS011;1014;51.960;8.542;2024-01-06T07:04:04;28.73;;;26.60;;
2019;SDS011;1014;51.960;8.542;2024-01-06T07:06:31;29.63;;;27.50;;
2019;SDS011;1014;51.960;8.542;2024-01-06T07:08:57;31.57;;;29.10;;
2019;SDS011;1014;51.960;8.542;2024-01-06T07:11:24;29.43;;;27.23;;
2019;SDS011;1014;51.960;8.542;2024-01-06T07:13:52;30.80;;;28.27;;
2019;SDS011;1014;51.960;8.542;2024-01-06T07:16:21;30.57;;;28.27;;
2019;SDS011;1014;51.960;8.542;2024-01-06T07:18:48;33.43;;;30.63;;
2019;SDS011;1014;51.960;8.542;2024-01-06T07:21:14;36.37;;;33.33;;
2019;SDS011;1014;51.960;8.542;2024-01-06T07:23:41;28.20;;;26.17;;
2019;SDS011;1014;51.960;8.542;2024-01-06T07:26:08;29.40;;;27.00;;
2019;SDS011;1014;51.960;8.542;2024-01-06T07:28:35;29.10;;;27.00;;
2019;SDS011;1014;51.960;8.542;2024-01-06T07:31:03;28.33;;;26.33;;
2019;SDS011;1014;51.960;8.542;2024-01-06T07:33:31;28.40;;;26.40;;
2019;SDS011;1014;51.960;8.542;2024-01-06T07:35:58;26.10;;;24.10;;
2019;SDS011;1014;51.960;8.542;2024-01-06T07:38:25;28.87;;;26.47;;
2019;SDS011;1014;51.960;8.542;2024-01-06T07:40:55;28.80;;;26.70;;
2019;SDS011;1014;51.960;8.542;2024-01-06T07:43:22;25.63;;;23.93;;
2019;SDS011;1014;51.960;8.542;2024-01-06T07:45:50;26.33;;;24.43;;
2019;SDS011;1014;51.960;8.542;2024-01-06T07:48:17;27.33;;;24.97;;
2019;SDS011;1014;51.960;8.542;2024-01-06T07:50:45;26.03;;;24.03;;
2019;SDS011;1014;51.960;8.542;2024-01-06T07:53:12;26.55;;;24.55;;
2019;SDS011;1014;51.960;8.542;2024-01-06T07:55:39;27.48;;;25.10;;
2019;SDS011;1014;51.960;8.542;2024-01-06T07:58:06;25.45;;;23.55;;
2019;SDS011;1014;51.960;8.542;2024-01-06T08:00:33;25.63;;;23.63;;
2019;SDS011;1014;51.960;8.542;2024-01-06T08:03:00;27.15;;;25.05;;
2019;SDS011;1014;51.960;8.542;2024-01-06T08:05:30;26.93;;;24.83;;
2019;SDS011;1014;51.960;8.542;2024-01-06T08:07:59;26.60;;;24.40;;
2019;SDS011;1014;51.960;8.542;2024-01-06T08:10:26;27.17;;;25.20;;
2019;SDS011;1014;51.960;8.542;2024-01-06T08:12:53;25.52;;;23.52;;
2019;SDS011;1014;51.960;8.542;2024-01-06T08:15:21;28.33;;;26.23;;
2019;SDS011;1014;51.960;8.542;2024-01-06T08:17:48;26.03;;;24.03;;
2019;SDS011;1014;51.960;8.542;2024-01-06T08:20:15;27.20;;;25.10;;
2019;SDS011;1014;51.960;8.542;2024-01-06T08:22:42;26.70;;;24.20;;
2019;SDS011;1014;51.960;8.542;2024-01-06T08:25:10;25.80;;;23.63;;
2019;SDS011;1014;51.960;8.542;2024-01-06T08:27:38;25.93;;;24.03;;
2019;SDS011;1014;51.960;8.542;2024-01-06T08:30:06;28.25;;;25.48;;
2019;SDS011;1014;51.960;8.542;2024-01-06T08:32:33;26.70;;;24.43;;
2019;SDS011;1014;51.960;8.542;2024-01-06T08:35:00;25.00;;;22.87;;
2019;SDS011;1014;51.960;8.542;2024-01-06T08:37:27;26.43;;;24.33;;
2019;SDS011;1014;51.960;8.542;2024-01-06T08:39:54;27.90;;;25.30;;
2019;SDS011;1014;51.960;8.542;2024-01-06T08:42:23;28.00;;;25.63;;
2019;SDS011;1014;51.960;8.542;2024-01-06T08:44:51;26.90;;;24.73;;
2019;SDS011;1014;51.960;8.542;2024-01-06T08:47:18;27.25;;;24.95;;
2019;SDS011;1014;51.960;8.542;2024-01-06T08:49:45;28.00;;;25.80;;
2019;SDS011;1014;51.960;8.542;2024-01-06T08:52:12;26.13;;;23.97;;
2019;SDS011;1014;51.960;8.542;2024-01-06T08:54:39;26.23;;;23.92;;
2019;SDS011;1014;51.960;8.542;2024-01-06T08:57:06;27.07;;;24.67;;
2019;SDS011;1014;51.960;8.542;2024-01-06T08:59:34;26.77;;;24.67;;
2019;SDS011;1014;51.960;8.542;2024-01-06T09:02:02;27.25;;;25.15;;
2019;SDS011;1014;51.960;8.542;2024-01-06T09:04:29;26.00;;;23.77;;
2019;SDS011;1014;51.960;8.542;2024-01-06T09:06:56;28.33;;;25.77;;
2019;SDS011;1014;51.960;8.542;2024-01-06T09:09:23;26.17;;;24.17;;
2019;SDS011;1014;51.960;8.542;2024-01-06T09:11:50;28.35;;;25.67;;
2019;SDS011;1014;51.960;8.542;2024-01-06T09:14:17;27.25;;;24.85;;
2019;SDS011;1014;51.960;8.542;2024-01-06T09:16:46;28.65;;;26.35;;
2019;SDS011;1014;51.960;8.542;2024-01-06T09:19:13;28.80;;;26.40;;
2019;SDS011;1014;51.960;8.542;2024-01-06T09:21:40;25.15;;;23.15;;
2019;SDS011;1014;51.960;8.542;2024-01-06T09:24:07;26.95;;;24.55;;
2019;SDS011;1014;51.960;8.542;2024-01-06T09:26:34;25.70;;;23.30;;
2019;SDS011;1014;51.960;8.542;2024-01-06T09:29:01;25.75;;;23.60;;
2019;SDS011;1014;51.960;8.542;2024-01-06T09:31:28;28.20;;;25.80;;
2019;SDS011;1014;51.960;8.542;2024-01-06T09:33:59;26.15;;;23.98;;
2019;SDS011;1014;51.960;8.542;2024-01-06T09:36:27;25.05;;;22.95;;
2019;SDS011;1014;51.960;8.542;2024-01-06T09:38:54;26.73;;;24.33;;
2019;SDS011;1014;51.960;8.542;2024-01-06T09:41:21;27.60;;;25.08;;
2019;SDS011;1014;51.960;8.542;2024-01-06T09:43:48;25.60;;;23.30;;
2019;SDS011;1014;51.960;8.542;2024-01-06T09:46:16;26.15;;;23.85;;
2019;SDS011;1014;51.960;8.542;2024-01-06T09:48:44;25.90;;;23.55;;
2019;SDS011;1014;51.960;8.542;2024-01-06T09:51:13;24.80;;;22.70;;
2019;SDS011;1014;51.960;8.542;2024-01-06T09:53:42;31.53;;;28.43;;
2019;SDS011;1014;51.960;8.542;2024-01-06T09:56:09;27.70;;;25.10;;
2019;SDS011;1014;51.960;8.542;2024-01-06T09:58:37;28.17;;;25.27;;
2019;SDS011;1014;51.960;8.542;2024-01-06T10:01:05;26.97;;;24.30;;
2019;SDS011;1014;51.960;8.542;2024-01-06T10:03:33;26.75;;;24.40;;
2019;SDS011;1014;51.960;8.542;2024-01-06T10:06:00;28.63;;;25.92;;
2019;SDS011;1014;51.960;8.542;2024-01-06T10:08:30;25.80;;;23.70;;
2019;SDS011;1014;51.960;8.542;2024-01-06T10:10:58;28.47;;;25.60;;
2019;SDS011;1014;51.960;8.542;2024-01-06T10:13:26;25.55;;;23.55;;
2019;SDS011;1014;51.960;8.542;2024-01-06T10:15:53;26.02;;;23.83;;
2019;SDS011;1014;51.960;8.542;2024-01-06T10:18:20;25.90;;;23.80;;
2019;SDS011;1014;51.960;8.542;2024-01-06T10:20:47;26.33;;;24.20;;
2019;SDS011;1014;51.960;8.542;2024-01-06T10:23:14;27.97;;;25.67;;
2019;SDS011;1014;51.960;8.542;2024-01-06T10:25:42;26.25;;;24.10;;
2019;SDS011;1014;51.960;8.542;2024-01-06T10:28:11;25.27;;;23.53;;
2019;SDS011;1014;51.960;8.542;2024-01-06T10:30:38;25.73;;;23.83;;
2019;SDS011;1014;51.960;8.542;2024-01-06T10:33:07;27.73;;;25.50;;
2019;SDS011;1014;51.960;8.542;2024-01-06T10:35:34;25.37;;;23.17;;
2019;SDS011;1014;51.960;8.542;2024-01-06T10:38:02;27.67;;;25.48;;
2019;SDS011;1014;51.960;8.542;2024-01-06T10:40:29;47.00;;;42.65;;
2019;SDS011;1014;51.960;8.542;2024-01-06T10:42:57;65.65;;;59.20;;
2019;SDS011;1014;51.960;8.542;2024-01-06T10:45:24;45.17;;;41.60;;
2019;SDS011;1014;51.960;8.542;2024-01-06T10:47:51;24.00;;;22.17;;
2019;SDS011;1014;51.960;8.542;2024-01-06T10:50:20;24.15;;;22.10;;
2019;SDS011;1014;51.960;8.542;2024-01-06T10:52:47;25.08;;;23.08;;
2019;SDS011;1014;51.960;8.542;2024-01-06T10:55:15;24.30;;;22.20;;
2019;SDS011;1014;51.960;8.542;2024-01-06T10:57:43;24.40;;;22.50;;
2019;SDS011;1014;51.960;8.542;2024-01-06T11:00:12;26.13;;;23.92;;
2019;SDS011;1014;51.960;8.542;2024-01-06T11:02:39;25.63;;;23.60;;
2019;SDS011;1014;51.960;8.542;2024-01-06T11:05:07;27.03;;;24.53;;
2019;SDS011;1014;51.960;8.542;2024-01-06T11:07:35;25.10;;;23.20;;
2019;SDS011;1014;51.960;8.542;2024-01-06T11:10:04;27.47;;;25.13;;
2019;SDS011;1014;51.960;8.542;2024-01-06T11:12:33;25.70;;;23.60;;
2019;SDS011;1014;51.960;8.542;2024-01-06T11:15:00;28.33;;;26.00;;
2019;SDS011;1014;51.960;8.542;2024-01-06T11:20:15;24.40;;;22.60;;
2019;SDS011;1014;51.960;8.542;2024-01-06T11:22:42;24.73;;;22.83;;
2019;SDS011;1014;51.960;8.542;2024-01-06T11:25:12;26.83;;;24.23;;
2019;SDS011;1014;51.960;8.542;2024-01-06T11:27:40;26.02;;;24.10;;
2019;SDS011;1014;51.960;8.542;2024-01-06T11:30:11;24.80;;;23.07;;
2019;SDS011;1014;51.960;8.542;2024-01-06T11:32:45;26.15;;;23.95;;
2019;SDS011;1014;51.960;8.542;2024-01-06T11:35:13;24.83;;;22.77;;
2019;SDS011;1014;51.960;8.542;2024-01-06T11:37:52;24.27;;;22.35;;
2019;SDS011;1014;51.960;8.542;2024-01-06T11:40:24;25.42;;;23.33;;
2019;SDS011;1014;51.960;8.542;2024-01-06T11:42:57;24.90;;;23.10;;
2019;SDS011;1014;51.960;8.542;2024-01-06T11:45:25;24.75;;;22.60;;
2019;SDS011;1014;51.960;8.542;2024-01-06T11:47:54;24.90;;;23.10;;
2019;SDS011;1014;51.960;8.542;2024-01-06T11:50:21;24.92;;;23.00;;
2019;SDS011;1014;51.960;8.542;2024-01-06T11:52:48;24.92;;;23.02;;
2019;SDS011;1014;51.960;8.542;2024-01-06T11:55:18;24.40;;;22.63;;
2019;SDS011;1014;51.960;8.542;2024-01-06T11:57:45;24.27;;;22.37;;
2019;SDS011;1014;51.960;8.542;2024-01-06T12:00:14;25.25;;;23.45;;
2019;SDS011;1014;51.960;8.542;2024-01-06T12:02:41;23.07;;;21.47;;
2019;SDS011;1014;51.960;8.542;2024-01-06T12:05:12;23.43;;;21.57;;
2019;SDS011;1014;51.960;8.542;2024-01-06T12:07:40;23.47;;;21.77;;
2019;SDS011;1014;51.960;8.542;2024-01-06T12:10:07;24.40;;;22.70;;
2019;SDS011;1014;51.960;8.542;2024-01-06T12:12:36;46.30;;;38.60;;
2019;SDS011;1014;51.960;8.542;2024-01-06T12:15:04;26.35;;;24.25;;
2019;SDS011;1014;51.960;8.542;2024-01-06T12:17:34;22.45;;;20.80;;
2019;SDS011;1014;51.960;8.542;2024-01-06T12:20:02;25.38;;;23.58;;
2019;SDS011;1014;51.960;8.542;2024-01-06T12:22:29;41.25;;;37.42;;
2019;SDS011;1014;51.960;8.542;2024-01-06T12:24:58;31.23;;;28.60;;
2019;SDS011;1014;51.960;8.542;2024-01-06T12:27:25;71.70;;;65.10;;
2019;SDS011;1014;51.960;8.542;2024-01-06T12:29:53;36.67;;;33.70;;
2019;SDS011;1014;51.960;8.542;2024-01-06T12:32:20;40.47;;;37.67;;
2019;SDS011;1014;51.960;8.542;2024-01-06T12:34:47;24.02;;;22.38;;
2019;SDS011;1014;51.960;8.542;2024-01-06T12:37:15;24.80;;;23.10;;
2019;SDS011;1014;51.960;8.542;2024-01-06T12:39:43;22.55;;;20.92;;
2019;SDS011;1014;51.960;8.542;2024-01-06T12:42:10;23.80;;;22.13;;
2019;SDS011;1014;51.960;8.542;2024-01-06T12:44:37;23.95;;;22.10;;
2019;SDS011;1014;51.960;8.542;2024-01-06T12:47:06;23.37;;;21.67;;
2019;SDS011;1014;51.960;8.542;2024-01-06T12:49:33;21.45;;;19.95;;
2019;SDS011;1014;51.960;8.542;2024-01-06T12:52:00;21.08;;;19.48;;
2019;SDS011;1014;51.960;8.542;2024-01-06T12:54:27;22.63;;;20.92;;
2019;SDS011;1014;51.960;8.542;2024-01-06T12:56:54;20.60;;;19.30;;
2019;SDS011;1014;51.960;8.542;2024-01-06T12:59:21;20.65;;;19.25;;
2019;SDS011;1014;51.960;8.542;2024-01-06T13:01:48;21.37;;;20.00;;
2019;SDS011;1014;51.960;8.542;2024-01-06T13:04:16;21.55;;;20.02;;
2019;SDS011;1014;51.960;8.542;2024-01-06T13:06:43;22.37;;;20.97;;
2019;SDS011;1014;51.960;8.542;2024-01-06T13:09:10;22.40;;;20.90;;
2019;SDS011;1014;51.960;8.542;2024-01-06T13:11:41;21.67;;;20.27;;
2019;SDS011;1014;51.960;8.542;2024-01-06T13:14:10;21.35;;;19.98;;
2019;SDS011;1014;51.960;8.542;2024-01-06T13:16:37;20.90;;;19.60;;
2019;SDS011;1014;51.960;8.542;2024-01-06T13:19:04;20.60;;;19.30;;
2019;SDS011;1014;51.960;8.542;2024-01-06T13:21:32;21.42;;;20.13;;
2019;SDS011;1014;51.960;8.542;2024-01-06T13:24:00;19.88;;;18.58;;
2019;SDS011;1014;51.960;8.542;2024-01-06T13:26:29;21.08;;;19.88;;
2019;SDS011;1014;51.960;8.542;2024-01-06T13:28:56;20.38;;;19.23;;
2019;SDS011;1014;51.960;8.542;2024-01-06T13:31:23;21.87;;;20.27;;
2019;SDS011;1014;51.960;8.542;2024-01-06T13:33:51;21.77;;;20.37;;
2019;SDS011;1014;51.960;8.542;2024-01-06T13:36:19;19.88;;;18.67;;
2019;SDS011;1014;51.960;8.542;2024-01-06T13:38:48;19.90;;;18.70;;
2019;SDS011;1014;51.960;8.542;2024-01-06T13:41:15;19.67;;;18.57;;
2019;SDS011;1014;51.960;8.542;2024-01-06T13:43:42;19.35;;;18.25;;
2019;SDS011;1014;51.960;8.542;2024-01-06T13:46:10;20.70;;;19.50;;
2019;SDS011;1014;51.960;8.542;2024-01-06T13:48:38;20.73;;;19.40;;
2019;SDS011;1014;51.960;8.542;2024-01-06T13:51:06;19.95;;;18.85;;
2019;SDS011;1014;51.960;8.542;2024-01-06T13:53:33;21.37;;;20.07;;
2019;SDS011;1014;51.960;8.542;2024-01-06T13:56:02;22.23;;;20.55;;
2019;SDS011;1014;51.960;8.542;2024-01-06T13:58:29;19.75;;;18.75;;
2019;SDS011;1014;51.960;8.542;2024-01-06T14:00:56;21.63;;;20.38;;
2019;SDS011;1014;51.960;8.542;2024-01-06T14:03:23;21.70;;;20.40;;
2019;SDS011;1014;51.960;8.542;2024-01-06T14:05:50;21.85;;;20.58;;
2019;SDS011;1014;51.960;8.542;2024-01-06T14:08:18;21.60;;;20.43;;
2019;SDS011;1014;51.960;8.542;2024-01-06T14:10:45;23.55;;;22.15;;
2019;SDS011;1014;51.960;8.542;2024-01-06T14:13:13;23.37;;;22.07;;
2019;SDS011;1014;51.960;8.542;2024-01-06T14:15:41;23.65;;;22.25;;
2019;SDS011;1014;51.960;8.542;2024-01-06T14:18:09;21.33;;;20.23;;
2019;SDS011;1014;51.960;8.542;2024-01-06T14:20:37;22.42;;;21.13;;
2019;SDS011;1014;51.960;8.542;2024-01-06T14:23:05;22.13;;;20.98;;
2019;SDS011;1014;51.960;8.542;2024-01-06T14:25:33;21.35;;;20.35;;
2019;SDS011;1014;51.960;8.542;2024-01-06T14:28:00;22.80;;;21.60;;
2019;SDS011;1014;51.960;8.542;2024-01-06T14:30:28;23.27;;;22.17;;
2019;SDS011;1014;51.960;8.542;2024-01-06T14:32:55;24.10;;;22.70;;
2019;SDS011;1014;51.960;8.542;2024-01-06T14:35:22;24.10;;;22.97;;
2019;SDS011;1014;51.960;8.542;2024-01-06T14:37:49;25.40;;;24.10;;
2019;SDS011;1014;51.960;8.542;2024-01-06T14:40:18;25.00;;;23.70;;
2019;SDS011;1014;51.960;8.542;2024-01-06T14:42:45;25.73;;;24.33;;
2019;SDS011;1014;51.960;8.542;2024-01-06T14:45:13;25.80;;;24.30;;
2019;SDS011;1014;51.960;8.542;2024-01-06T14:47:42;25.73;;;24.40;;
2019;SDS011;1014;51.960;8.542;2024-01-06T14:50:09;25.98;;;24.67;;
2019;SDS011;1014;51.960;8.542;2024-01-06T14:52:36;25.40;;;24.10;;